sensor_id;sensor_type;location;lat;lon;timestamp;P1;durP1;ratioP1;P2;durP2;ratioP2
21103;SDS011;10710;53.398;-1.514;2023-02-28T00:00:19;6.40;;;2.35;;
21103;SDS011;10710;53.398;-1.514;2023-02-28T00:02:46;3.97;;;2.00;;
21103;SDS011;10710;53.398;-1.514;2023-02-28T00:05:13;6.43;;;2.20;;
21103;SDS011;10710;53.398;-1.514;2023-02-28T00:07:40;2.53;;;1.88;;
21103;SDS011;10710;53.398;-1.514;2023-02-28T00:10:06;4.20;;;2.00;;
21103;SDS011;10710;53.398;-1.514;2023-02-28T00:12:33;4.68;;;1.88;;
21103;SDS011;10710;53.398;-1.514;2023-02-28T00:14:59;3.78;;;1.92;;
21103;SDS011;10710;53.398;-1.514;2023-02-28T00:17:26;5.88;;;1.90;;
21103;SDS011;10710;53.398;-1.514;2023-02-28T00:19:51;3.97;;;2.10;;
21103;SDS011;10710;53.398;-1.514;2023-02-28T00:22:18;4.20;;;2.30;;
21103;SDS011;10710;53.398;-1.514;2023-02-28T00:24:45;5.80;;;2.87;;
21103;SDS011;10710;53.398;-1.514;2023-02-28T00:27:11;5.43;;;2.63;;
21103;SDS011;10710;53.398;-1.514;2023-02-28T00:29:37;6.43;;;2.73;;
21103;SDS011;10710;53.398;-1.514;2023-02-28T00:32:03;7.70;;;3.72;;
21103;SDS011;10710;53.398;-1.514;2023-02-28T00:34:29;7.20;;;3.63;;
21103;SDS011;10710;53.398;-1.514;2023-02-28T00:36:54;10.98;;;4.45;;
21103;SDS011;10710;53.398;-1.514;2023-02-28T00:39:21;7.70;;;4.32;;
21103;SDS011;10710;53.398;-1.514;2023-02-28T00:41:47;11.48;;;5.10;;
21103;SDS011;10710;53.398;-1.514;2023-02-28T00:44:12;8.75;;;4.68;;
21103;SDS011;10710;53.398;-1.514;2023-02-28T00:46:38;9.00;;;4.72;;
21103;SDS011;10710;53.398;-1.514;2023-02-28T00:49:04;14.77;;;4.63;;
21103;SDS011;10710;53.398;-1.514;2023-02-28T00:51:30;6.57;;;3.83;;
21103;SDS011;10710;53.398;-1.514;2023-02-28T00:53:55;8.30;;;3.80;;
21103;SDS011;10710;53.398;-1.514;2023-02-28T00:56:21;6.13;;;3.17;;
21103;SDS011;10710;53.398;-1.514;2023-02-28T00:58:47;6.17;;;3.30;;
21103;SDS011;10710;53.398;-1.514;2023-02-28T01:01:12;4.50;;;2.50;;
21103;SDS011;10710;53.398;-1.514;2023-02-28T01:03:38;4.70;;;2.78;;
21103;SDS011;10710;53.398;-1.514;2023-02-28T01:06:04;7.28;;;2.50;;
21103;SDS011;10710;53.398;-1.514;2023-02-28T01:08:30;3.83;;;2.13;;
21103;SDS011;10710;53.398;-1.514;2023-02-28T01:10:56;3.70;;;2.13;;
21103;SDS011;10710;53.398;-1.514;2023-02-28T01:13:21;5.07;;;2.47;;
21103;SDS011;10710;53.398;-1.514;2023-02-28T01:15:52;3.65;;;2.20;;
21103;SDS011;10710;53.398;-1.514;2023-02-28T01:18:20;5.53;;;2.10;;
21103;SDS011;10710;53.398;-1.514;2023-02-28T01:20:47;3.20;;;2.08;;
21103;SDS011;10710;53.398;-1.514;2023-02-28T01:23:13;2.58;;;2.13;;
21103;SDS011;10710;53.398;-1.514;2023-02-28T01:25:38;4.20;;;2.40;;
21103;SDS011;10710;53.398;-1.514;2023-02-28T01:28:04;3.07;;;1.90;;
21103;SDS011;10710;53.398;-1.514;2023-02-28T01:30:31;2.90;;;1.58;;
21103;SDS011;10710;53.398;-1.514;2023-02-28T01:32:57;3.75;;;2.08;;
21103;SDS011;10710;53.398;-1.514;2023-02-28T01:35:23;4.40;;;1.92;;
21103;SDS011;10710;53.398;-1.514;2023-02-28T01:37:49;3.08;;;1.58;;
21103;SDS011;10710;53.398;-1.514;2023-02-28T01:40:15;2.05;;;1.42;;
21103;SDS011;10710;53.398;-1.514;2023-02-28T01:42:41;3.72;;;1.70;;
21103;SDS011;10710;53.398;-1.514;2023-02-28T01:45:20;2.60;;;1.27;;
21103;SDS011;10710;53.398;-1.514;2023-02-28T01:47:47;1.98;;;1.40;;
21103;SDS011;10710;53.398;-1.514;2023-02-28T01:50:20;4.07;;;1.58;;
21103;SDS011;10710;53.398;-1.514;2023-02-28T01:52:49;3.22;;;1.50;;
21103;SDS011;10710;53.398;-1.514;2023-02-28T01:55:16;2.55;;;1.38;;
21103;SDS011;10710;53.398;-1.514;2023-02-28T01:57:48;3.33;;;1.40;;
21103;SDS011;10710;53.398;-1.514;2023-02-28T02:00:18;4.32;;;1.40;;
21103;SDS011;10710;53.398;-1.514;2023-02-28T02:02:48;2.70;;;1.30;;
21103;SDS011;10710;53.398;-1.514;2023-02-28T02:05:21;3.60;;;1.30;;
21103;SDS011;10710;53.398;-1.514;2023-02-28T02:07:50;2.17;;;1.15;;
21103;SDS011;10710;53.398;-1.514;2023-02-28T02:10:29;1.47;;;0.87;;
21103;SDS011;10710;53.398;-1.514;2023-02-28T02:13:29;4.10;;;1.02;;
21103;SDS011;10710;53.398;-1.514;2023-02-28T02:18:50;3.80;;;1.10;;
21103;SDS011;10710;53.398;-1.514;2023-02-28T02:35:27;5.85;;;2.70;;
21103;SDS011;10710;53.398;-1.514;2023-02-28T02:43:50;6.55;;;3.42;;
21103;SDS011;10710;53.398;-1.514;2023-02-28T02:48:57;5.45;;;3.22;;
21103;SDS011;10710;53.398;-1.514;2023-02-28T02:51:27;10.75;;;3.45;;
21103;SDS011;10710;53.398;-1.514;2023-02-28T02:54:02;6.68;;;3.30;;
21103;SDS011;10710;53.398;-1.514;2023-02-28T02:56:29;6.22;;;3.20;;
21103;SDS011;10710;53.398;-1.514;2023-02-28T02:59:06;5.82;;;2.95;;
21103;SDS011;10710;53.398;-1.514;2023-02-28T03:01:34;5.95;;;2.75;;
21103;SDS011;10710;53.398;-1.514;2023-02-28T03:04:04;5.40;;;3.08;;
21103;SDS011;10710;53.398;-1.514;2023-02-28T03:06:32;7.43;;;2.47;;
21103;SDS011;10710;53.398;-1.514;2023-02-28T03:08:59;4.93;;;2.40;;
21103;SDS011;10710;53.398;-1.514;2023-02-28T03:11:26;3.78;;;1.73;;
21103;SDS011;10710;53.398;-1.514;2023-02-28T03:17:09;5.10;;;1.58;;
21103;SDS011;10710;53.398;-1.514;2023-02-28T03:28:02;5.10;;;1.80;;
21103;SDS011;10710;53.398;-1.514;2023-02-28T03:30:50;2.87;;;1.50;;
21103;SDS011;10710;53.398;-1.514;2023-02-28T03:33:30;2.95;;;1.50;;
21103;SDS011;10710;53.398;-1.514;2023-02-28T03:36:05;4.20;;;1.80;;
21103;SDS011;10710;53.398;-1.514;2023-02-28T03:38:40;2.42;;;1.30;;
21103;SDS011;10710;53.398;-1.514;2023-02-28T03:41:13;3.73;;;1.57;;
21103;SDS011;10710;53.398;-1.514;2023-02-28T03:43:48;3.65;;;1.73;;
21103;SDS011;10710;53.398;-1.514;2023-02-28T03:46:18;3.17;;;1.60;;
21103;SDS011;10710;53.398;-1.514;2023-02-28T03:48:55;3.03;;;1.53;;
21103;SDS011;10710;53.398;-1.514;2023-02-28T03:51:27;2.78;;;1.30;;
21103;SDS011;10710;53.398;-1.514;2023-02-28T03:53:55;2.90;;;1.60;;
21103;SDS011;10710;53.398;-1.514;2023-02-28T03:56:31;2.08;;;1.38;;
21103;SDS011;10710;53.398;-1.514;2023-02-28T04:01:48;3.85;;;1.80;;
21103;SDS011;10710;53.398;-1.514;2023-02-28T04:04:14;3.88;;;1.88;;
21103;SDS011;10710;53.398;-1.514;2023-02-28T04:06:42;5.30;;;2.00;;
21103;SDS011;10710;53.398;-1.514;2023-02-28T04:09:09;4.75;;;2.67;;
21103;SDS011;10710;53.398;-1.514;2023-02-28T04:11:37;9.50;;;3.13;;
21103;SDS011;10710;53.398;-1.514;2023-02-28T04:14:07;5.80;;;3.20;;
21103;SDS011;10710;53.398;-1.514;2023-02-28T04:16:35;5.38;;;2.80;;
21103;SDS011;10710;53.398;-1.514;2023-02-28T04:19:05;10.88;;;3.50;;
21103;SDS011;10710;53.398;-1.514;2023-02-28T04:21:36;8.02;;;3.60;;
21103;SDS011;10710;53.398;-1.514;2023-02-28T04:24:07;9.80;;;3.90;;
21103;SDS011;10710;53.398;-1.514;2023-02-28T04:26:38;4.18;;;2.67;;
21103;SDS011;10710;53.398;-1.514;2023-02-28T04:29:05;4.68;;;2.40;;
21103;SDS011;10710;53.398;-1.514;2023-02-28T04:31:32;4.55;;;2.28;;
21103;SDS011;10710;53.398;-1.514;2023-02-28T04:33:58;4.55;;;2.33;;
21103;SDS011;10710;53.398;-1.514;2023-02-28T04:36:24;3.83;;;2.30;;
21103;SDS011;10710;53.398;-1.514;2023-02-28T04:38:50;5.30;;;2.43;;
21103;SDS011;10710;53.398;-1.514;2023-02-28T04:41:16;4.97;;;2.15;;
21103;SDS011;10710;53.398;-1.514;2023-02-28T04:43:42;6.60;;;2.58;;
21103;SDS011;10710;53.398;-1.514;2023-02-28T04:46:08;4.93;;;2.50;;
21103;SDS011;10710;53.398;-1.514;2023-02-28T04:48:35;4.47;;;2.63;;
21103;SDS011;10710;53.398;-1.514;2023-02-28T04:51:02;5.35;;;2.90;;
21103;SDS011;10710;53.398;-1.514;2023-02-28T04:53:29;5.40;;;2.67;;
21103;SDS011;10710;53.398;-1.514;2023-02-28T04:55:56;6.20;;;2.75;;
21103;SDS011;10710;53.398;-1.514;2023-02-28T04:58:22;6.05;;;3.25;;
21103;SDS011;10710;53.398;-1.514;2023-02-28T05:00:48;6.82;;;3.03;;
21103;SDS011;10710;53.398;-1.514;2023-02-28T05:03:18;5.72;;;2.95;;
21103;SDS011;10710;53.398;-1.514;2023-02-28T05:05:45;5.75;;;3.13;;
21103;SDS011;10710;53.398;-1.514;2023-02-28T05:08:11;5.10;;;2.83;;
21103;SDS011;10710;53.398;-1.514;2023-02-28T05:10:37;5.03;;;2.90;;
21103;SDS011;10710;53.398;-1.514;2023-02-28T05:13:03;7.55;;;2.65;;
21103;SDS011;10710;53.398;-1.514;2023-02-28T05:15:29;4.30;;;2.05;;
21103;SDS011;10710;53.398;-1.514;2023-02-28T05:17:54;7.43;;;2.30;;
21103;SDS011;10710;53.398;-1.514;2023-02-28T05:20:20;2.50;;;1.30;;
21103;SDS011;10710;53.398;-1.514;2023-02-28T05:22:46;2.72;;;1.48;;
21103;SDS011;10710;53.398;-1.514;2023-02-28T05:25:13;2.78;;;1.60;;
21103;SDS011;10710;53.398;-1.514;2023-02-28T05:27:44;4.63;;;1.52;;
21103;SDS011;10710;53.398;-1.514;2023-02-28T05:30:10;4.20;;;2.30;;
21103;SDS011;10710;53.398;-1.514;2023-02-28T05:32:37;5.13;;;1.90;;
21103;SDS011;10710;53.398;-1.514;2023-02-28T05:35:04;8.93;;;2.08;;
21103;SDS011;10710;53.398;-1.514;2023-02-28T05:37:30;4.03;;;1.88;;
21103;SDS011;10710;53.398;-1.514;2023-02-28T05:39:56;3.88;;;2.22;;
21103;SDS011;10710;53.398;-1.514;2023-02-28T05:42:21;2.92;;;1.83;;
21103;SDS011;10710;53.398;-1.514;2023-02-28T05:44:47;4.25;;;1.80;;
21103;SDS011;10710;53.398;-1.514;2023-02-28T05:47:13;4.95;;;1.67;;
21103;SDS011;10710;53.398;-1.514;2023-02-28T05:49:40;5.55;;;1.88;;
21103;SDS011;10710;53.398;-1.514;2023-02-28T05:52:06;4.07;;;1.75;;
21103;SDS011;10710;53.398;-1.514;2023-02-28T05:54:32;3.03;;;1.60;;
21103;SDS011;10710;53.398;-1.514;2023-02-28T05:56:59;4.78;;;1.90;;
21103;SDS011;10710;53.398;-1.514;2023-02-28T05:59:25;2.80;;;1.67;;
21103;SDS011;10710;53.398;-1.514;2023-02-28T06:01:50;3.10;;;1.60;;
21103;SDS011;10710;53.398;-1.514;2023-02-28T06:04:18;3.38;;;1.70;;
21103;SDS011;10710;53.398;-1.514;2023-02-28T06:06:46;2.50;;;1.48;;
21103;SDS011;10710;53.398;-1.514;2023-02-28T06:09:12;9.20;;;2.30;;
21103;SDS011;10710;53.398;-1.514;2023-02-28T06:11:38;6.57;;;1.77;;
21103;SDS011;10710;53.398;-1.514;2023-02-28T06:14:04;7.53;;;2.73;;
21103;SDS011;10710;53.398;-1.514;2023-02-28T06:16:32;5.40;;;2.28;;
21103;SDS011;10710;53.398;-1.514;2023-02-28T06:19:00;5.57;;;2.25;;
21103;SDS011;10710;53.398;-1.514;2023-02-28T06:21:27;5.28;;;2.15;;
21103;SDS011;10710;53.398;-1.514;2023-02-28T06:23:53;5.90;;;1.90;;
21103;SDS011;10710;53.398;-1.514;2023-02-28T06:26:20;4.63;;;1.90;;
21103;SDS011;10710;53.398;-1.514;2023-02-28T06:28:46;4.13;;;2.00;;
21103;SDS011;10710;53.398;-1.514;2023-02-28T06:31:13;3.53;;;2.00;;
21103;SDS011;10710;53.398;-1.514;2023-02-28T06:33:40;7.97;;;2.50;;
21103;SDS011;10710;53.398;-1.514;2023-02-28T06:36:07;4.28;;;2.03;;
21103;SDS011;10710;53.398;-1.514;2023-02-28T06:38:33;4.18;;;2.05;;
21103;SDS011;10710;53.398;-1.514;2023-02-28T06:40:59;6.85;;;1.58;;
21103;SDS011;10710;53.398;-1.514;2023-02-28T06:43:29;4.63;;;1.85;;
21103;SDS011;10710;53.398;-1.514;2023-02-28T06:45:58;4.13;;;1.70;;
21103;SDS011;10710;53.398;-1.514;2023-02-28T06:48:25;7.95;;;2.35;;
21103;SDS011;10710;53.398;-1.514;2023-02-28T06:50:52;4.63;;;2.08;;
21103;SDS011;10710;53.398;-1.514;2023-02-28T06:53:29;3.03;;;1.60;;
21103;SDS011;10710;53.398;-1.514;2023-02-28T06:55:55;7.85;;;3.38;;
21103;SDS011;10710;53.398;-1.514;2023-02-28T06:58:21;4.87;;;1.93;;
21103;SDS011;10710;53.398;-1.514;2023-02-28T07:00:50;2.70;;;1.73;;
21103;SDS011;10710;53.398;-1.514;2023-02-28T07:03:16;9.07;;;1.80;;
21103;SDS011;10710;53.398;-1.514;2023-02-28T07:05:43;3.47;;;1.45;;
21103;SDS011;10710;53.398;-1.514;2023-02-28T07:08:09;10.77;;;2.08;;
21103;SDS011;10710;53.398;-1.514;2023-02-28T07:10:38;2.67;;;1.40;;
21103;SDS011;10710;53.398;-1.514;2023-02-28T07:13:05;7.93;;;1.60;;
21103;SDS011;10710;53.398;-1.514;2023-02-28T07:15:31;3.93;;;1.67;;
21103;SDS011;10710;53.398;-1.514;2023-02-28T07:17:56;4.23;;;1.53;;
21103;SDS011;10710;53.398;-1.514;2023-02-28T07:20:23;4.80;;;1.83;;
21103;SDS011;10710;53.398;-1.514;2023-02-28T07:22:49;4.10;;;1.88;;
21103;SDS011;10710;53.398;-1.514;2023-02-28T07:25:24;2.42;;;1.48;;
21103;SDS011;10710;53.398;-1.514;2023-02-28T07:27:51;4.22;;;1.40;;
21103;SDS011;10710;53.398;-1.514;2023-02-28T07:30:17;5.63;;;1.70;;
21103;SDS011;10710;53.398;-1.514;2023-02-28T07:32:43;4.47;;;1.80;;
21103;SDS011;10710;53.398;-1.514;2023-02-28T07:35:09;6.03;;;1.55;;
21103;SDS011;10710;53.398;-1.514;2023-02-28T07:37:35;3.60;;;2.10;;
21103;SDS011;10710;53.398;-1.514;2023-02-28T07:40:05;3.97;;;1.73;;
21103;SDS011;10710;53.398;-1.514;2023-02-28T07:42:36;3.72;;;1.45;;
21103;SDS011;10710;53.398;-1.514;2023-02-28T07:45:03;4.03;;;1.60;;
21103;SDS011;10710;53.398;-1.514;2023-02-28T07:47:29;4.07;;;1.48;;
21103;SDS011;10710;53.398;-1.514;2023-02-28T07:49:56;5.82;;;1.95;;
21103;SDS011;10710;53.398;-1.514;2023-02-28T07:52:22;7.30;;;1.90;;
21103;SDS011;10710;53.398;-1.514;2023-02-28T07:54:51;3.55;;;1.70;;
21103;SDS011;10710;53.398;-1.514;2023-02-28T07:57:17;2.70;;;1.30;;
21103;SDS011;10710;53.398;-1.514;2023-02-28T07:59:43;4.95;;;1.50;;
21103;SDS011;10710;53.398;-1.514;2023-02-28T08:02:13;2.50;;;1.30;;
21103;SDS011;10710;53.398;-1.514;2023-02-28T08:04:39;3.30;;;1.80;;
21103;SDS011;10710;53.398;-1.514;2023-02-28T08:07:05;4.50;;;2.07;;
21103;SDS011;10710;53.398;-1.514;2023-02-28T08:09:31;3.30;;;1.80;;
21103;SDS011;10710;53.398;-1.514;2023-02-28T08:11:57;6.93;;;1.83;;
21103;SDS011;10710;53.398;-1.514;2023-02-28T08:14:23;3.88;;;2.10;;
21103;SDS011;10710;53.398;-1.514;2023-02-28T08:16:48;3.80;;;2.00;;
21103;SDS011;10710;53.398;-1.514;2023-02-28T08:19:14;3.70;;;2.50;;
21103;SDS011;10710;53.398;-1.514;2023-02-28T08:21:40;4.03;;;2.17;;
21103;SDS011;10710;53.398;-1.514;2023-02-28T08:24:05;6.57;;;2.22;;
21103;SDS011;10710;53.398;-1.514;2023-02-28T08:26:31;4.80;;;2.63;;
21103;SDS011;10710;53.398;-1.514;2023-02-28T08:28:57;7.13;;;2.43;;
21103;SDS011;10710;53.398;-1.514;2023-02-28T08:31:23;4.37;;;2.37;;
21103;SDS011;10710;53.398;-1.514;2023-02-28T08:33:49;6.00;;;3.30;;
21103;SDS011;10710;53.398;-1.514;2023-02-28T08:36:16;4.80;;;2.40;;
21103;SDS011;10710;53.398;-1.514;2023-02-28T08:38:42;7.03;;;2.17;;
21103;SDS011;10710;53.398;-1.514;2023-02-28T08:41:09;5.68;;;1.80;;
21103;SDS011;10710;53.398;-1.514;2023-02-28T08:43:36;5.78;;;2.15;;
21103;SDS011;10710;53.398;-1.514;2023-02-28T08:46:03;6.88;;;2.13;;
21103;SDS011;10710;53.398;-1.514;2023-02-28T08:48:30;2.88;;;1.90;;
21103;SDS011;10710;53.398;-1.514;2023-02-28T08:51:06;6.05;;;2.03;;
21103;SDS011;10710;53.398;-1.514;2023-02-28T08:53:34;1.83;;;1.30;;
21103;SDS011;10710;53.398;-1.514;2023-02-28T08:56:05;4.43;;;1.70;;
21103;SDS011;10710;53.398;-1.514;2023-02-28T08:58:33;2.93;;;1.50;;
21103;SDS011;10710;53.398;-1.514;2023-02-28T09:00:59;2.78;;;1.30;;
21103;SDS011;10710;53.398;-1.514;2023-02-28T09:03:25;3.57;;;1.23;;
21103;SDS011;10710;53.398;-1.514;2023-02-28T09:05:59;4.03;;;1.00;;
21103;SDS011;10710;53.398;-1.514;2023-02-28T09:08:26;1.95;;;1.30;;
21103;SDS011;10710;53.398;-1.514;2023-02-28T09:10:55;3.07;;;1.30;;
21103;SDS011;10710;53.398;-1.514;2023-02-28T09:13:23;3.78;;;1.10;;
21103;SDS011;10710;53.398;-1.514;2023-02-28T09:15:49;5.60;;;1.58;;
21103;SDS011;10710;53.398;-1.514;2023-02-28T09:18:15;4.07;;;1.67;;
21103;SDS011;10710;53.398;-1.514;2023-02-28T09:20:41;5.07;;;1.50;;
21103;SDS011;10710;53.398;-1.514;2023-02-28T09:23:09;4.93;;;1.50;;
21103;SDS011;10710;53.398;-1.514;2023-02-28T09:25:36;4.20;;;1.00;;
21103;SDS011;10710;53.398;-1.514;2023-02-28T09:28:03;4.70;;;1.17;;
21103;SDS011;10710;53.398;-1.514;2023-02-28T09:30:29;4.88;;;1.10;;
21103;SDS011;10710;53.398;-1.514;2023-02-28T09:32:55;2.70;;;1.50;;
21103;SDS011;10710;53.398;-1.514;2023-02-28T09:35:21;2.23;;;1.30;;
21103;SDS011;10710;53.398;-1.514;2023-02-28T09:37:48;0.93;;;0.82;;
21103;SDS011;10710;53.398;-1.514;2023-02-28T09:40:15;1.65;;;1.00;;
21103;SDS011;10710;53.398;-1.514;2023-02-28T09:42:43;4.03;;;1.20;;
21103;SDS011;10710;53.398;-1.514;2023-02-28T09:45:34;3.30;;;1.17;;
21103;SDS011;10710;53.398;-1.514;2023-02-28T09:48:16;2.78;;;1.27;;
21103;SDS011;10710;53.398;-1.514;2023-02-28T09:50:52;1.37;;;0.93;;
21103;SDS011;10710;53.398;-1.514;2023-02-28T09:53:26;2.10;;;1.50;;
21103;SDS011;10710;53.398;-1.514;2023-02-28T09:56:14;1.88;;;1.40;;
21103;SDS011;10710;53.398;-1.514;2023-02-28T09:58:53;5.28;;;1.65;;
21103;SDS011;10710;53.398;-1.514;2023-02-28T10:04:03;2.57;;;1.60;;
21103;SDS011;10710;53.398;-1.514;2023-02-28T10:06:50;2.78;;;1.85;;
21103;SDS011;10710;53.398;-1.514;2023-02-28T10:09:19;2.90;;;1.95;;
21103;SDS011;10710;53.398;-1.514;2023-02-28T10:11:59;4.18;;;1.90;;
21103;SDS011;10710;53.398;-1.514;2023-02-28T10:14:28;2.55;;;1.50;;
21103;SDS011;10710;53.398;-1.514;2023-02-28T10:22:16;4.45;;;1.80;;
21103;SDS011;10710;53.398;-1.514;2023-02-28T10:25:04;3.97;;;1.60;;
21103;SDS011;10710;53.398;-1.514;2023-02-28T10:27:41;3.97;;;1.70;;
21103;SDS011;10710;53.398;-1.514;2023-02-28T10:30:09;5.87;;;1.73;;
21103;SDS011;10710;53.398;-1.514;2023-02-28T10:32:36;2.95;;;1.30;;
21103;SDS011;10710;53.398;-1.514;2023-02-28T10:37:51;3.80;;;1.08;;
21103;SDS011;10710;53.398;-1.514;2023-02-28T10:42:59;2.13;;;1.00;;
21103;SDS011;10710;53.398;-1.514;2023-02-28T10:45:31;3.50;;;1.30;;
21103;SDS011;10710;53.398;-1.514;2023-02-28T10:48:04;3.85;;;1.20;;
21103;SDS011;10710;53.398;-1.514;2023-02-28T10:50:39;4.30;;;1.25;;
21103;SDS011;10710;53.398;-1.514;2023-02-28T11:03:57;4.45;;;1.40;;
21103;SDS011;10710;53.398;-1.514;2023-02-28T11:06:30;1.33;;;1.00;;
21103;SDS011;10710;53.398;-1.514;2023-02-28T11:08:58;1.15;;;1.05;;
21103;SDS011;10710;53.398;-1.514;2023-02-28T11:11:28;2.03;;;1.10;;
21103;SDS011;10710;53.398;-1.514;2023-02-28T11:13:57;3.42;;;1.35;;
21103;SDS011;10710;53.398;-1.514;2023-02-28T11:16:36;1.83;;;0.98;;
21103;SDS011;10710;53.398;-1.514;2023-02-28T11:19:03;2.42;;;1.90;;
21103;SDS011;10710;53.398;-1.514;2023-02-28T11:21:35;2.15;;;0.70;;
21103;SDS011;10710;53.398;-1.514;2023-02-28T11:24:12;0.73;;;0.70;;
21103;SDS011;10710;53.398;-1.514;2023-02-28T11:26:53;0.75;;;0.60;;
21103;SDS011;10710;53.398;-1.514;2023-02-28T11:29:21;1.83;;;0.93;;
21103;SDS011;10710;53.398;-1.514;2023-02-28T11:34:28;1.10;;;0.82;;
21103;SDS011;10710;53.398;-1.514;2023-02-28T11:36:55;1.80;;;0.90;;
21103;SDS011;10710;53.398;-1.514;2023-02-28T11:39:22;1.60;;;0.90;;
21103;SDS011;10710;53.398;-1.514;2023-02-28T11:55:52;1.27;;;0.75;;
21103;SDS011;10710;53.398;-1.514;2023-02-28T11:58:33;1.23;;;1.02;;
21103;SDS011;10710;53.398;-1.514;2023-02-28T12:06:30;0.90;;;0.70;;
21103;SDS011;10710;53.398;-1.514;2023-02-28T12:14:50;3.80;;;1.05;;
21103;SDS011;10710;53.398;-1.514;2023-02-28T12:20:54;1.33;;;1.00;;
21103;SDS011;10710;53.398;-1.514;2023-02-28T12:28:57;2.75;;;0.85;;
21103;SDS011;10710;53.398;-1.514;2023-02-28T12:31:38;3.60;;;1.00;;
21103;SDS011;10710;53.398;-1.514;2023-02-28T12:34:12;0.70;;;0.70;;
21103;SDS011;10710;53.398;-1.514;2023-02-28T12:36:41;1.20;;;0.80;;
21103;SDS011;10710;53.398;-1.514;2023-02-28T12:39:32;1.92;;;0.77;;
21103;SDS011;10710;53.398;-1.514;2023-02-28T12:42:12;1.60;;;1.05;;
21103;SDS011;10710;53.398;-1.514;2023-02-28T12:44:44;1.77;;;1.00;;
21103;SDS011;10710;53.398;-1.514;2023-02-28T12:47:15;1.77;;;1.10;;
21103;SDS011;10710;53.398;-1.514;2023-02-28T12:49:49;3.30;;;0.90;;
21103;SDS011;10710;53.398;-1.514;2023-02-28T12:52:25;2.00;;;1.05;;
21103;SDS011;10710;53.398;-1.514;2023-02-28T12:58:14;1.20;;;0.90;;
21103;SDS011;10710;53.398;-1.514;2023-02-28T13:03:54;2.03;;;1.23;;
21103;SDS011;10710;53.398;-1.514;2023-02-28T13:09:10;2.90;;;1.30;;
21103;SDS011;10710;53.398;-1.514;2023-02-28T13:14:28;3.05;;;1.50;;
21103;SDS011;10710;53.398;-1.514;2023-02-28T13:19:43;2.90;;;1.48;;
21103;SDS011;10710;53.398;-1.514;2023-02-28T13:24:52;2.97;;;0.98;;
21103;SDS011;10710;53.398;-1.514;2023-02-28T13:27:40;2.03;;;0.90;;
21103;SDS011;10710;53.398;-1.514;2023-02-28T13:49:27;1.00;;;0.60;;
21103;SDS011;10710;53.398;-1.514;2023-02-28T13:52:02;3.20;;;1.05;;
21103;SDS011;10710;53.398;-1.514;2023-02-28T13:59:48;1.00;;;0.70;;
21103;SDS011;10710;53.398;-1.514;2023-02-28T14:05:13;1.05;;;0.73;;
21103;SDS011;10710;53.398;-1.514;2023-02-28T14:10:19;3.08;;;1.15;;
21103;SDS011;10710;53.398;-1.514;2023-02-28T14:12:59;0.95;;;0.93;;
21103;SDS011;10710;53.398;-1.514;2023-02-28T14:15:33;1.80;;;1.10;;
21103;SDS011;10710;53.398;-1.514;2023-02-28T14:18:16;0.90;;;0.70;;
21103;SDS011;10710;53.398;-1.514;2023-02-28T14:20:42;2.80;;;0.90;;
21103;SDS011;10710;53.398;-1.514;2023-02-28T14:23:14;2.80;;;1.02;;
21103;SDS011;10710;53.398;-1.514;2023-02-28T14:26:03;1.05;;;0.80;;
21103;SDS011;10710;53.398;-1.514;2023-02-28T14:28:43;1.77;;;0.87;;
21103;SDS011;10710;53.398;-1.514;2023-02-28T14:31:36;1.08;;;0.68;;
21103;SDS011;10710;53.398;-1.514;2023-02-28T14:37:01;0.80;;;0.70;;
21103;SDS011;10710;53.398;-1.514;2023-02-28T14:39:28;1.42;;;0.95;;
21103;SDS011;10710;53.398;-1.514;2023-02-28T14:41:58;2.72;;;0.73;;
21103;SDS011;10710;53.398;-1.514;2023-02-28T14:44:28;2.30;;;1.38;;
21103;SDS011;10710;53.398;-1.514;2023-02-28T14:46:55;6.17;;;1.20;;
21103;SDS011;10710;53.398;-1.514;2023-02-28T14:54:38;1.85;;;0.55;;
21103;SDS011;10710;53.398;-1.514;2023-02-28T14:57:04;2.20;;;0.80;;
21103;SDS011;10710;53.398;-1.514;2023-02-28T14:59:34;4.63;;;1.40;;
21103;SDS011;10710;53.398;-1.514;2023-02-28T15:02:16;2.85;;;0.80;;
21103;SDS011;10710;53.398;-1.514;2023-02-28T15:04:51;5.10;;;1.30;;
21103;SDS011;10710;53.398;-1.514;2023-02-28T15:07:19;2.50;;;0.90;;
21103;SDS011;10710;53.398;-1.514;2023-02-28T15:10:06;9.33;;;1.70;;
21103;SDS011;10710;53.398;-1.514;2023-02-28T15:12:33;3.10;;;1.80;;
21103;SDS011;10710;53.398;-1.514;2023-02-28T15:15:00;2.75;;;1.48;;
21103;SDS011;10710;53.398;-1.514;2023-02-28T15:17:26;1.98;;;0.93;;
21103;SDS011;10710;53.398;-1.514;2023-02-28T15:19:52;3.00;;;1.02;;
21103;SDS011;10710;53.398;-1.514;2023-02-28T15:22:20;4.53;;;1.48;;
21103;SDS011;10710;53.398;-1.514;2023-02-28T15:24:56;1.27;;;0.75;;
21103;SDS011;10710;53.398;-1.514;2023-02-28T15:27:26;3.90;;;1.30;;
21103;SDS011;10710;53.398;-1.514;2023-02-28T15:29:57;2.80;;;0.95;;
21103;SDS011;10710;53.398;-1.514;2023-02-28T15:34:55;2.10;;;1.17;;
21103;SDS011;10710;53.398;-1.514;2023-02-28T15:37:45;2.20;;;1.52;;
21103;SDS011;10710;53.398;-1.514;2023-02-28T15:56:29;1.53;;;0.80;;
21103;SDS011;10710;53.398;-1.514;2023-02-28T15:59:00;5.00;;;1.27;;
21103;SDS011;10710;53.398;-1.514;2023-02-28T16:01:29;7.28;;;1.33;;
21103;SDS011;10710;53.398;-1.514;2023-02-28T16:04:02;4.78;;;1.23;;
21103;SDS011;10710;53.398;-1.514;2023-02-28T16:06:42;3.58;;;1.00;;
21103;SDS011;10710;53.398;-1.514;2023-02-28T16:09:16;1.98;;;0.98;;
21103;SDS011;10710;53.398;-1.514;2023-02-28T16:11:43;2.53;;;1.00;;
21103;SDS011;10710;53.398;-1.514;2023-02-28T16:14:13;1.83;;;1.30;;
21103;SDS011;10710;53.398;-1.514;2023-02-28T16:17:01;2.72;;;1.30;;
21103;SDS011;10710;53.398;-1.514;2023-02-28T16:19:29;4.57;;;1.15;;
21103;SDS011;10710;53.398;-1.514;2023-02-28T16:21:56;5.88;;;1.00;;
21103;SDS011;10710;53.398;-1.514;2023-02-28T16:24:22;3.72;;;1.00;;
21103;SDS011;10710;53.398;-1.514;2023-02-28T16:26:48;5.00;;;1.33;;
21103;SDS011;10710;53.398;-1.514;2023-02-28T16:29:19;4.30;;;1.47;;
21103;SDS011;10710;53.398;-1.514;2023-02-28T16:31:51;3.30;;;1.15;;
21103;SDS011;10710;53.398;-1.514;2023-02-28T16:34:18;2.17;;;1.10;;
21103;SDS011;10710;53.398;-1.514;2023-02-28T16:36:46;2.83;;;1.40;;
21103;SDS011;10710;53.398;-1.514;2023-02-28T16:39:12;2.05;;;1.10;;
21103;SDS011;10710;53.398;-1.514;2023-02-28T16:41:42;2.60;;;1.20;;
21103;SDS011;10710;53.398;-1.514;2023-02-28T16:44:13;1.30;;;1.00;;
21103;SDS011;10710;53.398;-1.514;2023-02-28T16:46:49;3.42;;;1.00;;
21103;SDS011;10710;53.398;-1.514;2023-02-28T16:49:15;4.45;;;2.13;;
21103;SDS011;10710;53.398;-1.514;2023-02-28T16:51:40;4.13;;;1.60;;
21103;SDS011;10710;53.398;-1.514;2023-02-28T16:54:06;4.37;;;1.80;;
21103;SDS011;10710;53.398;-1.514;2023-02-28T16:56:32;2.70;;;1.70;;
21103;SDS011;10710;53.398;-1.514;2023-02-28T16:59:00;2.17;;;1.30;;
21103;SDS011;10710;53.398;-1.514;2023-02-28T17:01:26;1.48;;;1.17;;
21103;SDS011;10710;53.398;-1.514;2023-02-28T17:03:52;3.07;;;1.50;;
21103;SDS011;10710;53.398;-1.514;2023-02-28T17:06:28;1.90;;;1.37;;
21103;SDS011;10710;53.398;-1.514;2023-02-28T17:08:55;4.53;;;1.55;;
21103;SDS011;10710;53.398;-1.514;2023-02-28T17:11:21;3.10;;;1.10;;
21103;SDS011;10710;53.398;-1.514;2023-02-28T17:13:47;2.20;;;1.40;;
21103;SDS011;10710;53.398;-1.514;2023-02-28T17:16:22;2.95;;;1.25;;
21103;SDS011;10710;53.398;-1.514;2023-02-28T17:18:59;1.30;;;1.08;;
21103;SDS011;10710;53.398;-1.514;2023-02-28T17:21:28;3.15;;;1.20;;
21103;SDS011;10710;53.398;-1.514;2023-02-28T17:23:54;2.92;;;1.55;;
21103;SDS011;10710;53.398;-1.514;2023-02-28T17:26:20;1.88;;;1.23;;
21103;SDS011;10710;53.398;-1.514;2023-02-28T17:28:49;4.35;;;0.90;;
21103;SDS011;10710;53.398;-1.514;2023-02-28T17:31:16;2.28;;;0.82;;
21103;SDS011;10710;53.398;-1.514;2023-02-28T17:33:41;1.77;;;1.10;;
21103;SDS011;10710;53.398;-1.514;2023-02-28T17:36:14;1.30;;;0.97;;
21103;SDS011;10710;53.398;-1.514;2023-02-28T17:38:42;2.25;;;1.20;;
21103;SDS011;10710;53.398;-1.514;2023-02-28T17:41:09;2.28;;;1.45;;